Terminal Aerodrome Forecast
Issued by NWS

Current Version | Previous Version | Graphics & Text | Print | Product List | Glossary On
Versions: 1 2 3 4 5 6 7 8 9 10 11 12 13 14 15 16 17 18 19 20 21 22 23 24 25 26 27 28 29
000
FTUS41 KILN 150700 AAB
TAFLUK
TAF AMD
KLUK 150751Z 1508/1606 00000KT 2SM BR BKN004
      TEMPO 1508/1512 1/2SM FG BKN003
     FM151300 20006KT P6SM BKN250
     FM152000 21008KT P6SM SCT040 BKN150
     FM160100 24006KT P6SM OVC050
      TEMPO 1604/1606 30005KT -SHRA BKN030=

USA.gov is the U.S. government's official web portal to all federal, state and local government web resources and services.